Terminal Aerodrome Forecast
Issued by NWS Jackson, MS

Home | Current Version | Previous Version | Text Only | Print | Product List | Glossary On
Versions: 1 2 3 4 5 6 7 8 9 10 11 12 13
953
FTUS44 KJAN 291720
TAFHBG
TAF
KHBG 291720Z 2918/3018 34005KT P6SM SCT250
     FM300000 19003KT P6SM SKC
     FM300800 00000KT 4SM BR BKN250
     FM301400 VRB03KT P6SM SCT250=

USA.gov is the U.S. government's official web portal to all federal, state and local government web resources and services.